sensor_id;sensor_type;location;lat;lon;timestamp;P1;durP1;ratioP1;P2;durP2;ratioP2
29416;SDS011;28421;51.030;4.006;2023-04-19T03:15:01;28.55;;;17.35;;
29416;SDS011;28421;51.030;4.006;2023-04-19T03:17:56;32.38;;;19.92;;
29416;SDS011;28421;51.030;4.006;2023-04-19T03:20:22;34.22;;;19.63;;
29416;SDS011;28421;51.030;4.006;2023-04-19T03:22:48;34.80;;;17.77;;
29416;SDS011;28421;51.030;4.006;2023-04-19T03:25:14;34.08;;;19.02;;
29416;SDS011;28421;51.030;4.006;2023-04-19T03:27:43;39.25;;;19.10;;
29416;SDS011;28421;51.030;4.006;2023-04-19T03:30:11;32.22;;;18.23;;
29416;SDS011;28421;51.030;4.006;2023-04-19T03:32:38;31.95;;;18.38;;
29416;SDS011;28421;51.030;4.006;2023-04-19T03:35:05;35.15;;;19.05;;
29416;SDS011;28421;51.030;4.006;2023-04-19T03:37:31;27.38;;;17.30;;
29416;SDS011;28421;51.030;4.006;2023-04-19T03:39:57;31.20;;;17.58;;
29416;SDS011;28421;51.030;4.006;2023-04-19T03:42:29;34.40;;;18.77;;
29416;SDS011;28421;51.030;4.006;2023-04-19T03:45:02;30.83;;;18.95;;
29416;SDS011;28421;51.030;4.006;2023-04-19T03:47:30;33.58;;;18.17;;
29416;SDS011;28421;51.030;4.006;2023-04-19T03:49:57;31.38;;;17.85;;
29416;SDS011;28421;51.030;4.006;2023-04-19T03:52:22;30.73;;;18.08;;
29416;SDS011;28421;51.030;4.006;2023-04-19T03:54:50;29.27;;;18.05;;
29416;SDS011;28421;51.030;4.006;2023-04-19T03:57:28;30.40;;;17.95;;
29416;SDS011;28421;51.030;4.006;2023-04-19T03:59:55;32.80;;;19.13;;
29416;SDS011;28421;51.030;4.006;2023-04-19T04:02:21;29.70;;;18.05;;
29416;SDS011;28421;51.030;4.006;2023-04-19T04:04:51;31.88;;;18.38;;
29416;SDS011;28421;51.030;4.006;2023-04-19T04:07:21;29.30;;;16.23;;
29416;SDS011;28421;51.030;4.006;2023-04-19T04:09:47;31.40;;;18.63;;
29416;SDS011;28421;51.030;4.006;2023-04-19T04:12:13;38.95;;;20.17;;
29416;SDS011;28421;51.030;4.006;2023-04-19T04:14:40;36.15;;;19.00;;
29416;SDS011;28421;51.030;4.006;2023-04-19T04:17:06;29.13;;;17.88;;
29416;SDS011;28421;51.030;4.006;2023-04-19T04:19:32;29.88;;;17.05;;
29416;SDS011;28421;51.030;4.006;2023-04-19T04:21:58;33.28;;;17.20;;
29416;SDS011;28421;51.030;4.006;2023-04-19T04:24:24;32.63;;;17.25;;
29416;SDS011;28421;51.030;4.006;2023-04-19T04:27:09;29.23;;;17.95;;
29416;SDS011;28421;51.030;4.006;2023-04-19T04:29:37;24.48;;;15.18;;
29416;SDS011;28421;51.030;4.006;2023-04-19T04:32:06;28.10;;;17.60;;
29416;SDS011;28421;51.030;4.006;2023-04-19T04:34:38;34.30;;;18.45;;
29416;SDS011;28421;51.030;4.006;2023-04-19T04:37:10;37.58;;;17.77;;
29416;SDS011;28421;51.030;4.006;2023-04-19T04:39:37;27.77;;;16.63;;
29416;SDS011;28421;51.030;4.006;2023-04-19T04:42:05;27.23;;;16.85;;
29416;SDS011;28421;51.030;4.006;2023-04-19T04:44:34;34.55;;;18.75;;
29416;SDS011;28421;51.030;4.006;2023-04-19T04:47:01;32.85;;;17.90;;
29416;SDS011;28421;51.030;4.006;2023-04-19T04:49:30;37.38;;;19.80;;
29416;SDS011;28421;51.030;4.006;2023-04-19T04:51:56;32.70;;;17.05;;
29416;SDS011;28421;51.030;4.006;2023-04-19T04:54:23;32.15;;;18.00;;
29416;SDS011;28421;51.030;4.006;2023-04-19T04:56:48;31.13;;;17.85;;
29416;SDS011;28421;51.030;4.006;2023-04-19T04:59:14;31.98;;;18.02;;
29416;SDS011;28421;51.030;4.006;2023-04-19T05:01:42;28.88;;;17.45;;
29416;SDS011;28421;51.030;4.006;2023-04-19T05:04:08;30.38;;;18.20;;
29416;SDS011;28421;51.030;4.006;2023-04-19T05:06:34;35.40;;;21.13;;
29416;SDS011;28421;51.030;4.006;2023-04-19T05:08:59;32.28;;;17.75;;
29416;SDS011;28421;51.030;4.006;2023-04-19T05:11:34;29.77;;;17.95;;
29416;SDS011;28421;51.030;4.006;2023-04-19T05:14:01;30.83;;;18.48;;
29416;SDS011;28421;51.030;4.006;2023-04-19T05:16:27;32.30;;;18.88;;
29416;SDS011;28421;51.030;4.006;2023-04-19T05:18:53;32.42;;;18.23;;
29416;SDS011;28421;51.030;4.006;2023-04-19T05:21:20;30.40;;;17.52;;
29416;SDS011;28421;51.030;4.006;2023-04-19T05:23:46;36.40;;;18.55;;
29416;SDS011;28421;51.030;4.006;2023-04-19T05:26:13;34.60;;;18.90;;
29416;SDS011;28421;51.030;4.006;2023-04-19T05:28:40;34.92;;;18.02;;
29416;SDS011;28421;51.030;4.006;2023-04-19T05:31:12;30.88;;;17.45;;
29416;SDS011;28421;51.030;4.006;2023-04-19T05:33:48;26.65;;;15.07;;
29416;SDS011;28421;51.030;4.006;2023-04-19T05:36:14;31.67;;;17.27;;
29416;SDS011;28421;51.030;4.006;2023-04-19T05:38:39;34.35;;;18.42;;
29416;SDS011;28421;51.030;4.006;2023-04-19T05:41:05;29.02;;;17.95;;
29416;SDS011;28421;51.030;4.006;2023-04-19T05:43:30;29.83;;;17.25;;
29416;SDS011;28421;51.030;4.006;2023-04-19T05:45:56;28.48;;;16.92;;
29416;SDS011;28421;51.030;4.006;2023-04-19T05:48:22;28.75;;;15.88;;
29416;SDS011;28421;51.030;4.006;2023-04-19T05:51:08;30.65;;;16.80;;
29416;SDS011;28421;51.030;4.006;2023-04-19T05:53:48;32.25;;;18.25;;
29416;SDS011;28421;51.030;4.006;2023-04-19T05:56:13;32.97;;;17.52;;
29416;SDS011;28421;51.030;4.006;2023-04-19T05:58:39;34.17;;;16.58;;
29416;SDS011;28421;51.030;4.006;2023-04-19T06:01:04;27.60;;;17.25;;
29416;SDS011;28421;51.030;4.006;2023-04-19T06:03:31;29.85;;;16.08;;
29416;SDS011;28421;51.030;4.006;2023-04-19T06:05:58;29.15;;;17.52;;
29416;SDS011;28421;51.030;4.006;2023-04-19T06:08:23;28.95;;;17.02;;
29416;SDS011;28421;51.030;4.006;2023-04-19T06:10:49;35.40;;;18.33;;
29416;SDS011;28421;51.030;4.006;2023-04-19T06:13:15;27.70;;;17.00;;
29416;SDS011;28421;51.030;4.006;2023-04-19T06:15:41;30.80;;;17.88;;
29416;SDS011;28421;51.030;4.006;2023-04-19T06:18:06;31.92;;;19.65;;
29416;SDS011;28421;51.030;4.006;2023-04-19T06:20:38;28.23;;;17.13;;
29416;SDS011;28421;51.030;4.006;2023-04-19T06:23:04;28.73;;;17.00;;
29416;SDS011;28421;51.030;4.006;2023-04-19T06:25:31;30.50;;;17.58;;
29416;SDS011;28421;51.030;4.006;2023-04-19T06:27:56;33.03;;;17.83;;
29416;SDS011;28421;51.030;4.006;2023-04-19T06:30:22;29.85;;;17.00;;
29416;SDS011;28421;51.030;4.006;2023-04-19T06:32:47;31.15;;;16.42;;
29416;SDS011;28421;51.030;4.006;2023-04-19T06:35:13;29.83;;;16.67;;
29416;SDS011;28421;51.030;4.006;2023-04-19T06:37:38;30.50;;;16.17;;
29416;SDS011;28421;51.030;4.006;2023-04-19T06:40:04;28.77;;;16.85;;
29416;SDS011;28421;51.030;4.006;2023-04-19T06:42:35;36.45;;;17.73;;
29416;SDS011;28421;51.030;4.006;2023-04-19T06:45:01;25.95;;;15.45;;
29416;SDS011;28421;51.030;4.006;2023-04-19T06:47:27;28.33;;;15.57;;
29416;SDS011;28421;51.030;4.006;2023-04-19T06:49:53;26.73;;;15.40;;
29416;SDS011;28421;51.030;4.006;2023-04-19T06:52:18;22.77;;;15.73;;
29416;SDS011;28421;51.030;4.006;2023-04-19T06:54:50;26.83;;;16.45;;
29416;SDS011;28421;51.030;4.006;2023-04-19T06:57:16;22.90;;;14.48;;
29416;SDS011;28421;51.030;4.006;2023-04-19T06:59:42;28.10;;;15.57;;
29416;SDS011;28421;51.030;4.006;2023-04-19T07:02:08;23.27;;;14.30;;
29416;SDS011;28421;51.030;4.006;2023-04-19T07:04:33;23.23;;;14.80;;
29416;SDS011;28421;51.030;4.006;2023-04-19T07:06:59;25.55;;;13.52;;
29416;SDS011;28421;51.030;4.006;2023-04-19T07:09:24;29.27;;;15.27;;
29416;SDS011;28421;51.030;4.006;2023-04-19T07:11:50;22.52;;;14.38;;
29416;SDS011;28421;51.030;4.006;2023-04-19T07:14:16;23.30;;;14.38;;
29416;SDS011;28421;51.030;4.006;2023-04-19T07:16:45;21.88;;;12.93;;
29416;SDS011;28421;51.030;4.006;2023-04-19T07:19:11;26.60;;;13.75;;
29416;SDS011;28421;51.030;4.006;2023-04-19T07:21:36;22.17;;;13.75;;
29416;SDS011;28421;51.030;4.006;2023-04-19T07:24:06;22.52;;;14.73;;
29416;SDS011;28421;51.030;4.006;2023-04-19T07:26:32;33.00;;;15.38;;
29416;SDS011;28421;51.030;4.006;2023-04-19T07:28:58;23.77;;;14.60;;
29416;SDS011;28421;51.030;4.006;2023-04-19T07:31:24;25.88;;;16.48;;
29416;SDS011;28421;51.030;4.006;2023-04-19T07:33:51;18.92;;;12.32;;
29416;SDS011;28421;51.030;4.006;2023-04-19T07:36:17;27.70;;;14.27;;
29416;SDS011;28421;51.030;4.006;2023-04-19T07:38:42;25.63;;;13.13;;
29416;SDS011;28421;51.030;4.006;2023-04-19T07:41:08;20.13;;;12.45;;
29416;SDS011;28421;51.030;4.006;2023-04-19T07:43:34;23.15;;;14.20;;
29416;SDS011;28421;51.030;4.006;2023-04-19T07:46:00;24.05;;;12.82;;
29416;SDS011;28421;51.030;4.006;2023-04-19T07:48:25;21.48;;;13.65;;
29416;SDS011;28421;51.030;4.006;2023-04-19T07:50:51;23.95;;;12.98;;
29416;SDS011;28421;51.030;4.006;2023-04-19T07:53:17;23.80;;;11.95;;
29416;SDS011;28421;51.030;4.006;2023-04-19T07:55:42;18.38;;;11.25;;
29416;SDS011;28421;51.030;4.006;2023-04-19T07:58:08;18.80;;;11.45;;
29416;SDS011;28421;51.030;4.006;2023-04-19T08:00:34;20.02;;;12.52;;
29416;SDS011;28421;51.030;4.006;2023-04-19T08:03:01;20.27;;;12.18;;
29416;SDS011;28421;51.030;4.006;2023-04-19T08:05:26;21.25;;;11.95;;
29416;SDS011;28421;51.030;4.006;2023-04-19T08:07:52;22.20;;;11.75;;
29416;SDS011;28421;51.030;4.006;2023-04-19T08:10:17;20.77;;;12.50;;
29416;SDS011;28421;51.030;4.006;2023-04-19T08:12:43;20.40;;;12.25;;
29416;SDS011;28421;51.030;4.006;2023-04-19T08:15:08;18.35;;;10.63;;
29416;SDS011;28421;51.030;4.006;2023-04-19T08:17:34;21.25;;;11.40;;
29416;SDS011;28421;51.030;4.006;2023-04-19T08:20:00;19.88;;;11.35;;
29416;SDS011;28421;51.030;4.006;2023-04-19T08:22:25;16.65;;;9.85;;
29416;SDS011;28421;51.030;4.006;2023-04-19T08:24:51;21.17;;;11.85;;
29416;SDS011;28421;51.030;4.006;2023-04-19T08:27:16;17.08;;;9.82;;
29416;SDS011;28421;51.030;4.006;2023-04-19T08:29:43;17.48;;;10.57;;
29416;SDS011;28421;51.030;4.006;2023-04-19T08:32:08;21.92;;;10.77;;
29416;SDS011;28421;51.030;4.006;2023-04-19T08:34:35;19.13;;;10.43;;
29416;SDS011;28421;51.030;4.006;2023-04-19T08:37:01;13.00;;;9.30;;
29416;SDS011;28421;51.030;4.006;2023-04-19T08:39:28;18.05;;;10.82;;
29416;SDS011;28421;51.030;4.006;2023-04-19T08:41:56;20.55;;;11.43;;
29416;SDS011;28421;51.030;4.006;2023-04-19T08:44:30;15.00;;;10.43;;
29416;SDS011;28421;51.030;4.006;2023-04-19T08:46:57;21.08;;;11.13;;
29416;SDS011;28421;51.030;4.006;2023-04-19T08:49:23;17.63;;;9.20;;
29416;SDS011;28421;51.030;4.006;2023-04-19T08:51:49;13.55;;;9.32;;
29416;SDS011;28421;51.030;4.006;2023-04-19T08:54:15;17.73;;;10.73;;
29416;SDS011;28421;51.030;4.006;2023-04-19T08:56:42;13.27;;;8.20;;
29416;SDS011;28421;51.030;4.006;2023-04-19T08:59:07;18.27;;;9.20;;
29416;SDS011;28421;51.030;4.006;2023-04-19T09:01:33;16.42;;;9.43;;
29416;SDS011;28421;51.030;4.006;2023-04-19T09:03:58;12.40;;;8.30;;
29416;SDS011;28421;51.030;4.006;2023-04-19T09:06:23;12.68;;;7.68;;
29416;SDS011;28421;51.030;4.006;2023-04-19T09:08:51;15.55;;;8.68;;
29416;SDS011;28421;51.030;4.006;2023-04-19T09:11:26;12.52;;;7.70;;
29416;SDS011;28421;51.030;4.006;2023-04-19T09:14:07;12.40;;;8.50;;
29416;SDS011;28421;51.030;4.006;2023-04-19T09:16:34;13.23;;;8.32;;
29416;SDS011;28421;51.030;4.006;2023-04-19T09:19:03;12.55;;;8.27;;
29416;SDS011;28421;51.030;4.006;2023-04-19T09:21:30;13.40;;;8.35;;
29416;SDS011;28421;51.030;4.006;2023-04-19T09:23:56;11.98;;;7.57;;
29416;SDS011;28421;51.030;4.006;2023-04-19T09:26:23;12.68;;;7.45;;
29416;SDS011;28421;51.030;4.006;2023-04-19T09:28:55;13.02;;;7.38;;
29416;SDS011;28421;51.030;4.006;2023-04-19T09:31:22;11.70;;;7.03;;
29416;SDS011;28421;51.030;4.006;2023-04-19T09:33:48;10.40;;;7.03;;
29416;SDS011;28421;51.030;4.006;2023-04-19T09:36:25;10.65;;;7.03;;
29416;SDS011;28421;51.030;4.006;2023-04-19T09:38:55;9.43;;;6.80;;
29416;SDS011;28421;51.030;4.006;2023-04-19T09:41:21;12.60;;;7.40;;
29416;SDS011;28421;51.030;4.006;2023-04-19T09:43:47;8.02;;;6.03;;
29416;SDS011;28421;51.030;4.006;2023-04-19T09:49:19;11.93;;;6.80;;
29416;SDS011;28421;51.030;4.006;2023-04-19T09:51:55;10.65;;;6.70;;
29416;SDS011;28421;51.030;4.006;2023-04-19T09:54:24;14.18;;;7.32;;
29416;SDS011;28421;51.030;4.006;2023-04-19T09:56:54;8.68;;;5.55;;
29416;SDS011;28421;51.030;4.006;2023-04-19T09:59:19;12.43;;;7.03;;
29416;SDS011;28421;51.030;4.006;2023-04-19T10:01:46;13.00;;;6.40;;
29416;SDS011;28421;51.030;4.006;2023-04-19T10:04:16;7.53;;;5.80;;
29416;SDS011;28421;51.030;4.006;2023-04-19T10:06:47;14.18;;;7.43;;
29416;SDS011;28421;51.030;4.006;2023-04-19T10:09:14;8.70;;;5.47;;
29416;SDS011;28421;51.030;4.006;2023-04-19T10:11:39;10.05;;;6.80;;
29416;SDS011;28421;51.030;4.006;2023-04-19T10:14:11;12.75;;;6.82;;
29416;SDS011;28421;51.030;4.006;2023-04-19T10:16:39;11.18;;;7.05;;
29416;SDS011;28421;51.030;4.006;2023-04-19T10:19:06;8.07;;;5.57;;
29416;SDS011;28421;51.030;4.006;2023-04-19T10:21:33;9.13;;;6.20;;
29416;SDS011;28421;51.030;4.006;2023-04-19T10:23:59;9.80;;;5.65;;
29416;SDS011;28421;51.030;4.006;2023-04-19T10:26:26;8.75;;;5.78;;
29416;SDS011;28421;51.030;4.006;2023-04-19T10:28:52;9.45;;;5.53;;
29416;SDS011;28421;51.030;4.006;2023-04-19T10:31:19;8.07;;;5.45;;
29416;SDS011;28421;51.030;4.006;2023-04-19T10:33:48;8.90;;;4.85;;
29416;SDS011;28421;51.030;4.006;2023-04-19T10:36:19;6.50;;;5.13;;
29416;SDS011;28421;51.030;4.006;2023-04-19T10:38:49;7.18;;;5.30;;
29416;SDS011;28421;51.030;4.006;2023-04-19T10:41:19;9.65;;;6.10;;
29416;SDS011;28421;51.030;4.006;2023-04-19T10:43:46;8.75;;;5.10;;
29416;SDS011;28421;51.030;4.006;2023-04-19T10:48:55;7.72;;;4.88;;
29416;SDS011;28421;51.030;4.006;2023-04-19T10:51:25;8.40;;;5.15;;
29416;SDS011;28421;51.030;4.006;2023-04-19T10:57:07;6.47;;;5.03;;
29416;SDS011;28421;51.030;4.006;2023-04-19T10:59:39;7.97;;;5.43;;
29416;SDS011;28421;51.030;4.006;2023-04-19T11:07:14;9.23;;;6.75;;
29416;SDS011;28421;51.030;4.006;2023-04-19T11:09:45;9.25;;;5.93;;
29416;SDS011;28421;51.030;4.006;2023-04-19T11:14:40;11.63;;;7.15;;
29416;SDS011;28421;51.030;4.006;2023-04-19T11:22:29;12.60;;;8.23;;
29416;SDS011;28421;51.030;4.006;2023-04-19T11:27:31;12.88;;;7.28;;
29416;SDS011;28421;51.030;4.006;2023-04-19T11:30:05;12.65;;;7.07;;
29416;SDS011;28421;51.030;4.006;2023-04-19T11:32:32;11.57;;;7.77;;
29416;SDS011;28421;51.030;4.006;2023-04-19T11:35:02;14.15;;;7.40;;
29416;SDS011;28421;51.030;4.006;2023-04-19T11:37:32;11.73;;;7.53;;
29416;SDS011;28421;51.030;4.006;2023-04-19T11:39:59;13.90;;;7.40;;
29416;SDS011;28421;51.030;4.006;2023-04-19T11:42:24;15.00;;;7.97;;
29416;SDS011;28421;51.030;4.006;2023-04-19T11:44:50;9.48;;;7.03;;
29416;SDS011;28421;51.030;4.006;2023-04-19T11:47:16;10.20;;;6.45;;
29416;SDS011;28421;51.030;4.006;2023-04-19T11:49:42;14.00;;;7.40;;
29416;SDS011;28421;51.030;4.006;2023-04-19T11:52:07;10.55;;;6.07;;
29416;SDS011;28421;51.030;4.006;2023-04-19T11:54:32;13.30;;;7.38;;
29416;SDS011;28421;51.030;4.006;2023-04-19T11:59:31;11.48;;;7.40;;
29416;SDS011;28421;51.030;4.006;2023-04-19T12:02:07;10.45;;;7.60;;
29416;SDS011;28421;51.030;4.006;2023-04-19T12:04:35;11.60;;;7.68;;
29416;SDS011;28421;51.030;4.006;2023-04-19T12:07:01;11.07;;;8.30;;
29416;SDS011;28421;51.030;4.006;2023-04-19T12:09:27;12.48;;;7.13;;
29416;SDS011;28421;51.030;4.006;2023-04-19T12:11:53;12.48;;;7.78;;
29416;SDS011;28421;51.030;4.006;2023-04-19T12:14:19;10.38;;;7.38;;
29416;SDS011;28421;51.030;4.006;2023-04-19T12:19:47;12.02;;;7.50;;
29416;SDS011;28421;51.030;4.006;2023-04-19T12:22:14;14.10;;;7.35;;
29416;SDS011;28421;51.030;4.006;2023-04-19T12:24:41;9.77;;;6.68;;
29416;SDS011;28421;51.030;4.006;2023-04-19T12:27:07;12.82;;;6.97;;
29416;SDS011;28421;51.030;4.006;2023-04-19T12:29:33;9.63;;;6.43;;
29416;SDS011;28421;51.030;4.006;2023-04-19T12:31:59;8.98;;;5.60;;
29416;SDS011;28421;51.030;4.006;2023-04-19T12:34:25;7.88;;;5.85;;
29416;SDS011;28421;51.030;4.006;2023-04-19T12:36:51;8.85;;;6.20;;
29416;SDS011;28421;51.030;4.006;2023-04-19T12:39:16;11.10;;;6.00;;
29416;SDS011;28421;51.030;4.006;2023-04-19T12:41:41;9.55;;;5.05;;
29416;SDS011;28421;51.030;4.006;2023-04-19T12:44:07;10.88;;;6.32;;
29416;SDS011;28421;51.030;4.006;2023-04-19T12:46:32;9.02;;;5.63;;
29416;SDS011;28421;51.030;4.006;2023-04-19T12:48:58;8.77;;;5.00;;
29416;SDS011;28421;51.030;4.006;2023-04-19T12:51:23;11.95;;;4.95;;
29416;SDS011;28421;51.030;4.006;2023-04-19T12:53:49;7.10;;;4.72;;
29416;SDS011;28421;51.030;4.006;2023-04-19T12:56:15;9.23;;;4.53;;
29416;SDS011;28421;51.030;4.006;2023-04-19T12:58:41;6.63;;;4.40;;
29416;SDS011;28421;51.030;4.006;2023-04-19T13:01:07;14.77;;;6.15;;
29416;SDS011;28421;51.030;4.006;2023-04-19T13:03:32;9.82;;;4.80;;
29416;SDS011;28421;51.030;4.006;2023-04-19T13:06:03;9.90;;;5.20;;
29416;SDS011;28421;51.030;4.006;2023-04-19T13:08:29;6.95;;;3.63;;
29416;SDS011;28421;51.030;4.006;2023-04-19T13:10:55;5.18;;;3.78;;
29416;SDS011;28421;51.030;4.006;2023-04-19T13:13:21;7.78;;;4.18;;
29416;SDS011;28421;51.030;4.006;2023-04-19T13:15:46;10.88;;;4.78;;
29416;SDS011;28421;51.030;4.006;2023-04-19T13:18:12;6.50;;;3.08;;
29416;SDS011;28421;51.030;4.006;2023-04-19T13:20:37;6.68;;;3.08;;
29416;SDS011;28421;51.030;4.006;2023-04-19T13:23:02;4.32;;;3.63;;
29416;SDS011;28421;51.030;4.006;2023-04-19T13:25:28;4.28;;;3.00;;
29416;SDS011;28421;51.030;4.006;2023-04-19T13:27:53;6.30;;;3.90;;
29416;SDS011;28421;51.030;4.006;2023-04-19T13:30:19;6.25;;;3.45;;
29416;SDS011;28421;51.030;4.006;2023-04-19T13:32:44;7.85;;;3.40;;
29416;SDS011;28421;51.030;4.006;2023-04-19T13:35:09;10.02;;;3.67;;
29416;SDS011;28421;51.030;4.006;2023-04-19T13:37:35;5.95;;;3.15;;
29416;SDS011;28421;51.030;4.006;2023-04-19T13:40:00;4.88;;;3.33;;
29416;SDS011;28421;51.030;4.006;2023-04-19T13:42:28;4.97;;;2.95;;
29416;SDS011;28421;51.030;4.006;2023-04-19T13:44:53;5.50;;;2.72;;
29416;SDS011;28421;51.030;4.006;2023-04-19T13:47:19;3.13;;;2.50;;
29416;SDS011;28421;51.030;4.006;2023-04-19T13:49:44;3.40;;;3.10;;
29416;SDS011;28421;51.030;4.006;2023-04-19T13:52:16;4.82;;;3.05;;
29416;SDS011;28421;51.030;4.006;2023-04-19T13:54:44;3.58;;;2.58;;
29416;SDS011;28421;51.030;4.006;2023-04-19T13:57:10;6.70;;;3.55;;
29416;SDS011;28421;51.030;4.006;2023-04-19T13:59:36;6.88;;;3.63;;
29416;SDS011;28421;51.030;4.006;2023-04-19T14:02:02;5.55;;;3.30;;
29416;SDS011;28421;51.030;4.006;2023-04-19T14:04:28;3.75;;;2.40;;
29416;SDS011;28421;51.030;4.006;2023-04-19T14:06:54;3.03;;;2.65;;
29416;SDS011;28421;51.030;4.006;2023-04-19T14:09:20;3.15;;;2.65;;
29416;SDS011;28421;51.030;4.006;2023-04-19T14:11:45;4.80;;;3.20;;
29416;SDS011;28421;51.030;4.006;2023-04-19T14:14:12;6.55;;;3.10;;
29416;SDS011;28421;51.030;4.006;2023-04-19T14:16:37;4.13;;;3.00;;
29416;SDS011;28421;51.030;4.006;2023-04-19T14:19:03;5.07;;;3.38;;
29416;SDS011;28421;51.030;4.006;2023-04-19T14:21:28;4.13;;;2.53;;
29416;SDS011;28421;51.030;4.006;2023-04-19T14:23:54;5.40;;;2.97;;
29416;SDS011;28421;51.030;4.006;2023-04-19T14:26:19;4.53;;;2.60;;
29416;SDS011;28421;51.030;4.006;2023-04-19T14:28:47;2.80;;;2.33;;
29416;SDS011;28421;51.030;4.006;2023-04-19T14:31:13;6.35;;;2.55;;
29416;SDS011;28421;51.030;4.006;2023-04-19T14:33:38;3.30;;;2.50;;
29416;SDS011;28421;51.030;4.006;2023-04-19T14:36:04;4.38;;;2.75;;
29416;SDS011;28421;51.030;4.006;2023-04-19T14:38:29;2.53;;;2.28;;
29416;SDS011;28421;51.030;4.006;2023-04-19T14:40:55;3.17;;;2.08;;
29416;SDS011;28421;51.030;4.006;2023-04-19T14:43:20;9.13;;;2.25;;
29416;SDS011;28421;51.030;4.006;2023-04-19T14:45:49;2.17;;;1.98;;
29416;SDS011;28421;51.030;4.006;2023-04-19T14:48:15;6.32;;;2.22;;
29416;SDS011;28421;51.030;4.006;2023-04-19T14:50:40;4.78;;;1.90;;
29416;SDS011;28421;51.030;4.006;2023-04-19T14:53:06;7.38;;;2.53;;
29416;SDS011;28421;51.030;4.006;2023-04-19T14:55:31;5.15;;;2.33;;
29416;SDS011;28421;51.030;4.006;2023-04-19T14:57:57;3.45;;;2.30;;
29416;SDS011;28421;51.030;4.006;2023-04-19T15:00:22;2.35;;;2.00;;
29416;SDS011;28421;51.030;4.006;2023-04-19T15:02:48;3.60;;;2.25;;
29416;SDS011;28421;51.030;4.006;2023-04-19T15:05:13;7.07;;;2.25;;
29416;SDS011;28421;51.030;4.006;2023-04-19T15:07:39;6.35;;;2.60;;
29416;SDS011;28421;51.030;4.006;2023-04-19T15:10:05;7.28;;;2.30;;
29416;SDS011;28421;51.030;4.006;2023-04-19T15:12:31;4.25;;;2.35;;
29416;SDS011;28421;51.030;4.006;2023-04-19T15:14:56;6.25;;;1.90;;
29416;SDS011;28421;51.030;4.006;2023-04-19T15:17:22;4.63;;;2.20;;
29416;SDS011;28421;51.030;4.006;2023-04-19T15:19:47;3.83;;;2.60;;
29416;SDS011;28421;51.030;4.006;2023-04-19T15:22:13;5.70;;;2.72;;
29416;SDS011;28421;51.030;4.006;2023-04-19T15:24:38;7.47;;;2.92;;
29416;SDS011;28421;51.030;4.006;2023-04-19T15:27:04;4.30;;;2.40;;
29416;SDS011;28421;51.030;4.006;2023-04-19T15:29:29;4.05;;;2.50;;
29416;SDS011;28421;51.030;4.006;2023-04-19T15:31:55;2.20;;;1.92;;
29416;SDS011;28421;51.030;4.006;2023-04-19T15:34:20;2.85;;;2.00;;
29416;SDS011;28421;51.030;4.006;2023-04-19T15:36:46;2.03;;;1.60;;
29416;SDS011;28421;51.030;4.006;2023-04-19T15:39:11;3.03;;;2.45;;
29416;SDS011;28421;51.030;4.006;2023-04-19T15:41:37;3.17;;;2.50;;
29416;SDS011;28421;51.030;4.006;2023-04-19T15:44:02;3.92;;;2.00;;
29416;SDS011;28421;51.030;4.006;2023-04-19T15:46:28;4.80;;;2.33;;
29416;SDS011;28421;51.030;4.006;2023-04-19T15:48:53;3.72;;;2.15;;
29416;SDS011;28421;51.030;4.006;2023-04-19T15:51:18;5.10;;;2.65;;
29416;SDS011;28421;51.030;4.006;2023-04-19T15:53:44;3.00;;;2.30;;
29416;SDS011;28421;51.030;4.006;2023-04-19T15:56:10;2.45;;;1.90;;
29416;SDS011;28421;51.030;4.006;2023-04-19T15:58:37;3.35;;;2.40;;
29416;SDS011;28421;51.030;4.006;2023-04-19T16:01:02;6.63;;;2.97;;
29416;SDS011;28421;51.030;4.006;2023-04-19T16:03:31;3.05;;;2.55;;
29416;SDS011;28421;51.030;4.006;2023-04-19T16:05:56;3.35;;;2.20;;
29416;SDS011;28421;51.030;4.006;2023-04-19T16:08:22;5.00;;;2.20;;
29416;SDS011;28421;51.030;4.006;2023-04-19T16:10:47;4.25;;;2.10;;
29416;SDS011;28421;51.030;4.006;2023-04-19T16:13:14;4.18;;;2.20;;
29416;SDS011;28421;51.030;4.006;2023-04-19T16:15:40;8.35;;;2.13;;
29416;SDS011;28421;51.030;4.006;2023-04-19T16:18:07;3.25;;;1.95;;
29416;SDS011;28421;51.030;4.006;2023-04-19T16:20:32;2.58;;;1.92;;
29416;SDS011;28421;51.030;4.006;2023-04-19T16:22:58;4.38;;;2.30;;
29416;SDS011;28421;51.030;4.006;2023-04-19T16:25:27;7.55;;;1.90;;
29416;SDS011;28421;51.030;4.006;2023-04-19T16:27:53;3.50;;;2.03;;
29416;SDS011;28421;51.030;4.006;2023-04-19T16:30:18;2.08;;;1.92;;
29416;SDS011;28421;51.030;4.006;2023-04-19T16:32:44;7.82;;;2.72;;
29416;SDS011;28421;51.030;4.006;2023-04-19T16:35:10;11.20;;;2.47;;
29416;SDS011;28421;51.030;4.006;2023-04-19T16:37:35;4.70;;;3.03;;
29416;SDS011;28421;51.030;4.006;2023-04-19T16:40:03;4.38;;;2.10;;
29416;SDS011;28421;51.030;4.006;2023-04-19T16:42:32;4.65;;;2.35;;
29416;SDS011;28421;51.030;4.006;2023-04-19T16:44:58;4.70;;;1.77;;
29416;SDS011;28421;51.030;4.006;2023-04-19T16:47:23;3.30;;;2.28;;
29416;SDS011;28421;51.030;4.006;2023-04-19T16:49:49;8.13;;;2.53;;
29416;SDS011;28421;51.030;4.006;2023-04-19T16:52:15;3.90;;;2.03;;
29416;SDS011;28421;51.030;4.006;2023-04-19T16:54:41;5.45;;;1.92;;
29416;SDS011;28421;51.030;4.006;2023-04-19T16:57:07;5.15;;;2.45;;
29416;SDS011;28421;51.030;4.006;2023-04-19T16:59:34;5.78;;;2.10;;
29416;SDS011;28421;51.030;4.006;2023-04-19T17:02:00;4.25;;;2.30;;
29416;SDS011;28421;51.030;4.006;2023-04-19T17:04:25;8.38;;;3.30;;
29416;SDS011;28421;51.030;4.006;2023-04-19T17:06:51;5.63;;;2.53;;
29416;SDS011;28421;51.030;4.006;2023-04-19T17:09:17;5.13;;;2.20;;
29416;SDS011;28421;51.030;4.006;2023-04-19T17:11:42;2.80;;;2.30;;
29416;SDS011;28421;51.030;4.006;2023-04-19T17:14:07;9.70;;;2.80;;
29416;SDS011;28421;51.030;4.006;2023-04-19T17:16:33;3.25;;;2.25;;
29416;SDS011;28421;51.030;4.006;2023-04-19T17:18:58;4.63;;;2.63;;
29416;SDS011;28421;51.030;4.006;2023-04-19T17:21:24;9.15;;;2.65;;
29416;SDS011;28421;51.030;4.006;2023-04-19T17:23:49;4.55;;;2.60;;
29416;SDS011;28421;51.030;4.006;2023-04-19T17:26:15;3.55;;;2.47;;
29416;SDS011;28421;51.030;4.006;2023-04-19T17:28:40;3.47;;;2.67;;
29416;SDS011;28421;51.030;4.006;2023-04-19T17:31:06;5.85;;;2.70;;
29416;SDS011;28421;51.030;4.006;2023-04-19T17:33:32;4.40;;;2.83;;
29416;SDS011;28421;51.030;4.006;2023-04-19T17:35:57;5.53;;;3.65;;
29416;SDS011;28421;51.030;4.006;2023-04-19T17:38:23;11.32;;;3.08;;
29416;SDS011;28421;51.030;4.006;2023-04-19T17:40:48;4.03;;;3.38;;
29416;SDS011;28421;51.030;4.006;2023-04-19T17:43:14;4.25;;;2.83;;
29416;SDS011;28421;51.030;4.006;2023-04-19T17:45:39;4.88;;;3.17;;
29416;SDS011;28421;51.030;4.006;2023-04-19T17:48:05;4.07;;;2.67;;
29416;SDS011;28421;51.030;4.006;2023-04-19T17:50:30;5.05;;;3.40;;
29416;SDS011;28421;51.030;4.006;2023-04-19T17:52:56;3.72;;;2.80;;
29416;SDS011;28421;51.030;4.006;2023-04-19T17:55:21;3.40;;;2.95;;
29416;SDS011;28421;51.030;4.006;2023-04-19T17:57:47;5.13;;;3.47;;
29416;SDS011;28421;51.030;4.006;2023-04-19T18:00:13;4.03;;;3.00;;
29416;SDS011;28421;51.030;4.006;2023-04-19T18:02:39;4.60;;;2.92;;
29416;SDS011;28421;51.030;4.006;2023-04-19T18:05:05;5.40;;;3.20;;
29416;SDS011;28421;51.030;4.006;2023-04-19T18:07:31;2.63;;;2.40;;
29416;SDS011;28421;51.030;4.006;2023-04-19T18:10:00;5.63;;;2.95;;
29416;SDS011;28421;51.030;4.006;2023-04-19T18:12:25;5.13;;;3.25;;
29416;SDS011;28421;51.030;4.006;2023-04-19T18:14:51;3.78;;;2.92;;
29416;SDS011;28421;51.030;4.006;2023-04-19T18:17:17;5.97;;;3.05;;